sensor_id;sensor_type;location;lat;lon;timestamp;temperature;humidity
25933;DHT22;13731;51.166;4.474;2023-03-20T00:00:41;6.30;99.90
25933;DHT22;13731;51.166;4.474;2023-03-20T00:03:12;6.20;99.90
25933;DHT22;13731;51.166;4.474;2023-03-20T00:05:39;6.20;99.90
25933;DHT22;13731;51.166;4.474;2023-03-20T00:08:05;6.10;99.90
25933;DHT22;13731;51.166;4.474;2023-03-20T00:10:35;6.10;99.90
25933;DHT22;13731;51.166;4.474;2023-03-20T00:13:04;6.00;99.90
25933;DHT22;13731;51.166;4.474;2023-03-20T00:15:38;6.00;99.90
25933;DHT22;13731;51.166;4.474;2023-03-20T00:18:16;5.90;99.90
25933;DHT22;13731;51.166;4.474;2023-03-20T00:20:45;5.90;99.90
25933;DHT22;13731;51.166;4.474;2023-03-20T00:23:12;5.90;99.90
25933;DHT22;13731;51.166;4.474;2023-03-20T00:25:39;5.90;99.90
25933;DHT22;13731;51.166;4.474;2023-03-20T00:28:38;5.90;99.90
25933;DHT22;13731;51.166;4.474;2023-03-20T00:33:39;5.80;99.90
25933;DHT22;13731;51.166;4.474;2023-03-20T00:36:06;5.80;99.90
25933;DHT22;13731;51.166;4.474;2023-03-20T00:38:33;5.80;99.90
25933;DHT22;13731;51.166;4.474;2023-03-20T00:41:00;5.70;99.90
25933;DHT22;13731;51.166;4.474;2023-03-20T00:43:27;5.80;99.90
25933;DHT22;13731;51.166;4.474;2023-03-20T00:45:53;5.80;99.90
25933;DHT22;13731;51.166;4.474;2023-03-20T00:48:19;6.00;99.90
25933;DHT22;13731;51.166;4.474;2023-03-20T00:50:45;5.90;99.90
25933;DHT22;13731;51.166;4.474;2023-03-20T00:53:11;5.80;99.90
25933;DHT22;13731;51.166;4.474;2023-03-20T00:55:38;5.70;99.90
25933;DHT22;13731;51.166;4.474;2023-03-20T00:58:05;5.70;99.90
25933;DHT22;13731;51.166;4.474;2023-03-20T01:00:40;5.60;99.90
25933;DHT22;13731;51.166;4.474;2023-03-20T01:03:16;5.60;99.90
25933;DHT22;13731;51.166;4.474;2023-03-20T01:05:43;5.50;99.90
25933;DHT22;13731;51.166;4.474;2023-03-20T01:08:27;5.50;99.90
25933;DHT22;13731;51.166;4.474;2023-03-20T01:10:55;5.50;99.90
25933;DHT22;13731;51.166;4.474;2023-03-20T01:13:29;5.50;99.90
25933;DHT22;13731;51.166;4.474;2023-03-20T01:15:56;5.50;99.90
25933;DHT22;13731;51.166;4.474;2023-03-20T01:18:24;5.50;99.90
25933;DHT22;13731;51.166;4.474;2023-03-20T01:20:51;5.50;99.90
25933;DHT22;13731;51.166;4.474;2023-03-20T01:23:18;5.50;99.90
25933;DHT22;13731;51.166;4.474;2023-03-20T01:25:45;5.50;99.90
25933;DHT22;13731;51.166;4.474;2023-03-20T01:28:21;5.60;99.90
25933;DHT22;13731;51.166;4.474;2023-03-20T01:30:48;5.60;99.90
25933;DHT22;13731;51.166;4.474;2023-03-20T01:33:21;5.60;99.90
25933;DHT22;13731;51.166;4.474;2023-03-20T01:35:52;5.60;99.90
25933;DHT22;13731;51.166;4.474;2023-03-20T01:38:23;5.60;99.90
25933;DHT22;13731;51.166;4.474;2023-03-20T01:43:25;5.80;99.90
25933;DHT22;13731;51.166;4.474;2023-03-20T01:53:43;6.20;99.90
25933;DHT22;13731;51.166;4.474;2023-03-20T01:56:12;6.30;99.90
25933;DHT22;13731;51.166;4.474;2023-03-20T01:58:57;6.30;99.90
25933;DHT22;13731;51.166;4.474;2023-03-20T02:01:26;6.30;99.90
25933;DHT22;13731;51.166;4.474;2023-03-20T02:03:53;6.30;99.90
25933;DHT22;13731;51.166;4.474;2023-03-20T02:06:41;6.30;99.90
25933;DHT22;13731;51.166;4.474;2023-03-20T02:09:20;6.20;99.90
25933;DHT22;13731;51.166;4.474;2023-03-20T02:11:48;6.20;99.90
25933;DHT22;13731;51.166;4.474;2023-03-20T02:14:16;6.10;99.90
25933;DHT22;13731;51.166;4.474;2023-03-20T02:17:05;6.10;99.90
25933;DHT22;13731;51.166;4.474;2023-03-20T02:19:57;6.10;99.90
25933;DHT22;13731;51.166;4.474;2023-03-20T02:34:55;6.00;99.90
25933;DHT22;13731;51.166;4.474;2023-03-20T02:38:01;6.00;99.90
25933;DHT22;13731;51.166;4.474;2023-03-20T02:43:54;5.90;99.90
25933;DHT22;13731;51.166;4.474;2023-03-20T02:46:33;5.80;99.90
25933;DHT22;13731;51.166;4.474;2023-03-20T02:54:48;5.90;99.90
25933;DHT22;13731;51.166;4.474;2023-03-20T02:57:32;6.00;99.90
25933;DHT22;13731;51.166;4.474;2023-03-20T03:00:33;6.00;99.90
25933;DHT22;13731;51.166;4.474;2023-03-20T03:03:16;6.00;99.90
25933;DHT22;13731;51.166;4.474;2023-03-20T03:05:56;6.00;99.90
25933;DHT22;13731;51.166;4.474;2023-03-20T03:08:24;6.00;99.90
25933;DHT22;13731;51.166;4.474;2023-03-20T03:11:01;6.10;99.90
25933;DHT22;13731;51.166;4.474;2023-03-20T03:13:30;6.10;99.90
25933;DHT22;13731;51.166;4.474;2023-03-20T03:16:06;6.20;99.90
25933;DHT22;13731;51.166;4.474;2023-03-20T03:18:35;6.20;99.90
25933;DHT22;13731;51.166;4.474;2023-03-20T03:21:04;6.20;99.90
25933;DHT22;13731;51.166;4.474;2023-03-20T03:23:41;6.30;99.90
25933;DHT22;13731;51.166;4.474;2023-03-20T03:26:35;6.40;99.90
25933;DHT22;13731;51.166;4.474;2023-03-20T03:29:01;6.40;99.90
25933;DHT22;13731;51.166;4.474;2023-03-20T03:31:30;6.40;99.90
25933;DHT22;13731;51.166;4.474;2023-03-20T03:33:58;6.30;99.90
25933;DHT22;13731;51.166;4.474;2023-03-20T03:39:11;6.20;99.90
25933;DHT22;13731;51.166;4.474;2023-03-20T03:41:46;6.30;99.90
25933;DHT22;13731;51.166;4.474;2023-03-20T03:44:29;6.40;99.90
25933;DHT22;13731;51.166;4.474;2023-03-20T03:47:52;6.30;99.90
25933;DHT22;13731;51.166;4.474;2023-03-20T03:50:02;6.20;99.90
25933;DHT22;13731;51.166;4.474;2023-03-20T03:52:31;6.30;99.90
25933;DHT22;13731;51.166;4.474;2023-03-20T03:55:07;6.50;99.90
25933;DHT22;13731;51.166;4.474;2023-03-20T03:57:47;6.30;99.90
25933;DHT22;13731;51.166;4.474;2023-03-20T04:00:19;6.30;99.90
25933;DHT22;13731;51.166;4.474;2023-03-20T04:02:52;6.30;99.90
25933;DHT22;13731;51.166;4.474;2023-03-20T04:05:19;6.30;99.90
25933;DHT22;13731;51.166;4.474;2023-03-20T04:07:47;6.30;99.90
25933;DHT22;13731;51.166;4.474;2023-03-20T04:10:14;6.20;99.90
25933;DHT22;13731;51.166;4.474;2023-03-20T04:12:42;6.30;99.90
25933;DHT22;13731;51.166;4.474;2023-03-20T04:15:10;6.20;99.90
25933;DHT22;13731;51.166;4.474;2023-03-20T04:17:36;6.30;99.90
25933;DHT22;13731;51.166;4.474;2023-03-20T04:20:03;6.40;99.90
25933;DHT22;13731;51.166;4.474;2023-03-20T04:22:30;6.40;99.90
25933;DHT22;13731;51.166;4.474;2023-03-20T04:25:06;6.40;99.90
25933;DHT22;13731;51.166;4.474;2023-03-20T04:27:32;6.50;99.90
25933;DHT22;13731;51.166;4.474;2023-03-20T04:29:59;6.50;99.90
25933;DHT22;13731;51.166;4.474;2023-03-20T04:32:43;6.50;99.90
25933;DHT22;13731;51.166;4.474;2023-03-20T04:35:34;6.50;99.90
25933;DHT22;13731;51.166;4.474;2023-03-20T04:38:10;6.40;99.90
25933;DHT22;13731;51.166;4.474;2023-03-20T04:40:36;6.50;99.90
25933;DHT22;13731;51.166;4.474;2023-03-20T04:43:02;6.40;99.90
25933;DHT22;13731;51.166;4.474;2023-03-20T04:45:29;6.40;99.90
25933;DHT22;13731;51.166;4.474;2023-03-20T04:47:54;6.30;99.90
25933;DHT22;13731;51.166;4.474;2023-03-20T04:50:22;6.30;99.90
25933;DHT22;13731;51.166;4.474;2023-03-20T04:52:50;6.30;99.90
25933;DHT22;13731;51.166;4.474;2023-03-20T04:55:16;6.30;99.90
25933;DHT22;13731;51.166;4.474;2023-03-20T04:57:42;6.40;99.90
25933;DHT22;13731;51.166;4.474;2023-03-20T05:00:10;6.50;99.90
25933;DHT22;13731;51.166;4.474;2023-03-20T05:02:36;6.60;99.90
25933;DHT22;13731;51.166;4.474;2023-03-20T05:05:02;6.60;99.90
25933;DHT22;13731;51.166;4.474;2023-03-20T05:07:29;6.60;99.90
25933;DHT22;13731;51.166;4.474;2023-03-20T05:10:11;6.50;99.90
25933;DHT22;13731;51.166;4.474;2023-03-20T05:12:58;6.50;99.90
25933;DHT22;13731;51.166;4.474;2023-03-20T05:15:51;6.50;99.90
25933;DHT22;13731;51.166;4.474;2023-03-20T05:18:46;6.50;99.90
25933;DHT22;13731;51.166;4.474;2023-03-20T05:21:14;6.50;99.90
25933;DHT22;13731;51.166;4.474;2023-03-20T05:23:59;6.40;99.90
25933;DHT22;13731;51.166;4.474;2023-03-20T05:26:45;6.40;99.90
25933;DHT22;13731;51.166;4.474;2023-03-20T05:29:17;6.30;99.90
25933;DHT22;13731;51.166;4.474;2023-03-20T05:32:05;6.40;99.90
25933;DHT22;13731;51.166;4.474;2023-03-20T05:34:37;6.40;99.90
25933;DHT22;13731;51.166;4.474;2023-03-20T05:37:16;6.50;99.90
25933;DHT22;13731;51.166;4.474;2023-03-20T05:40:11;6.60;99.90
25933;DHT22;13731;51.166;4.474;2023-03-20T05:42:56;6.60;99.90
25933;DHT22;13731;51.166;4.474;2023-03-20T05:45:52;6.50;99.90
25933;DHT22;13731;51.166;4.474;2023-03-20T05:48:38;6.40;99.90
25933;DHT22;13731;51.166;4.474;2023-03-20T05:51:27;6.50;99.90
25933;DHT22;13731;51.166;4.474;2023-03-20T05:53:59;6.40;99.90
25933;DHT22;13731;51.166;4.474;2023-03-20T05:56:43;6.40;99.90
25933;DHT22;13731;51.166;4.474;2023-03-20T05:59:29;6.60;99.90
25933;DHT22;13731;51.166;4.474;2023-03-20T06:02:16;6.60;99.90
25933;DHT22;13731;51.166;4.474;2023-03-20T06:04:50;6.50;99.90
25933;DHT22;13731;51.166;4.474;2023-03-20T06:07:28;6.50;99.90
25933;DHT22;13731;51.166;4.474;2023-03-20T06:10:01;6.50;99.90
25933;DHT22;13731;51.166;4.474;2023-03-20T06:12:28;6.70;99.90
25933;DHT22;13731;51.166;4.474;2023-03-20T06:14:54;6.70;99.90
25933;DHT22;13731;51.166;4.474;2023-03-20T06:17:20;6.70;99.90
25933;DHT22;13731;51.166;4.474;2023-03-20T06:19:51;6.70;99.90
25933;DHT22;13731;51.166;4.474;2023-03-20T06:22:17;6.70;99.90
25933;DHT22;13731;51.166;4.474;2023-03-20T06:24:43;6.80;99.90
25933;DHT22;13731;51.166;4.474;2023-03-20T06:27:10;6.80;99.90
25933;DHT22;13731;51.166;4.474;2023-03-20T06:29:37;6.90;99.90
25933;DHT22;13731;51.166;4.474;2023-03-20T06:32:11;7.10;99.90
25933;DHT22;13731;51.166;4.474;2023-03-20T06:34:39;7.20;99.90
25933;DHT22;13731;51.166;4.474;2023-03-20T06:37:06;7.20;99.90
25933;DHT22;13731;51.166;4.474;2023-03-20T06:39:32;7.30;99.90
25933;DHT22;13731;51.166;4.474;2023-03-20T06:41:58;7.20;99.90
25933;DHT22;13731;51.166;4.474;2023-03-20T06:44:25;7.10;99.90
25933;DHT22;13731;51.166;4.474;2023-03-20T06:47:12;7.10;99.90
25933;DHT22;13731;51.166;4.474;2023-03-20T06:49:38;7.10;99.90
25933;DHT22;13731;51.166;4.474;2023-03-20T06:52:04;7.20;99.90
25933;DHT22;13731;51.166;4.474;2023-03-20T06:54:34;7.20;99.90
25933;DHT22;13731;51.166;4.474;2023-03-20T06:57:06;7.20;99.90
25933;DHT22;13731;51.166;4.474;2023-03-20T06:59:35;7.30;99.90
25933;DHT22;13731;51.166;4.474;2023-03-20T07:02:02;7.30;99.90
25933;DHT22;13731;51.166;4.474;2023-03-20T07:04:28;7.30;99.90
25933;DHT22;13731;51.166;4.474;2023-03-20T07:06:58;7.40;99.90
25933;DHT22;13731;51.166;4.474;2023-03-20T07:09:25;7.40;99.90
25933;DHT22;13731;51.166;4.474;2023-03-20T07:11:51;7.40;99.90
25933;DHT22;13731;51.166;4.474;2023-03-20T07:14:19;7.50;99.90
25933;DHT22;13731;51.166;4.474;2023-03-20T07:16:53;7.60;99.90
25933;DHT22;13731;51.166;4.474;2023-03-20T07:19:21;7.70;99.90
25933;DHT22;13731;51.166;4.474;2023-03-20T07:21:56;7.70;99.90
25933;DHT22;13731;51.166;4.474;2023-03-20T07:24:23;7.80;99.90
25933;DHT22;13731;51.166;4.474;2023-03-20T07:26:49;7.70;99.90
25933;DHT22;13731;51.166;4.474;2023-03-20T07:29:15;7.70;99.90
25933;DHT22;13731;51.166;4.474;2023-03-20T07:31:41;7.60;99.90
25933;DHT22;13731;51.166;4.474;2023-03-20T07:34:11;7.70;99.90
25933;DHT22;13731;51.166;4.474;2023-03-20T07:36:39;7.60;99.90
25933;DHT22;13731;51.166;4.474;2023-03-20T07:39:07;7.60;99.90
25933;DHT22;13731;51.166;4.474;2023-03-20T07:41:35;7.70;99.90
25933;DHT22;13731;51.166;4.474;2023-03-20T07:44:05;7.90;99.90
25933;DHT22;13731;51.166;4.474;2023-03-20T07:46:59;8.10;99.90
25933;DHT22;13731;51.166;4.474;2023-03-20T07:49:24;8.40;99.90
25933;DHT22;13731;51.166;4.474;2023-03-20T07:51:51;8.50;99.90
25933;DHT22;13731;51.166;4.474;2023-03-20T07:54:19;8.60;1.00
25933;DHT22;13731;51.166;4.474;2023-03-20T07:56:45;8.60;99.90
25933;DHT22;13731;51.166;4.474;2023-03-20T07:59:12;8.30;1.00
25933;DHT22;13731;51.166;4.474;2023-03-20T08:01:38;8.20;1.00
25933;DHT22;13731;51.166;4.474;2023-03-20T08:04:05;8.30;1.00
25933;DHT22;13731;51.166;4.474;2023-03-20T08:06:31;8.40;1.00
25933;DHT22;13731;51.166;4.474;2023-03-20T08:08:57;8.50;99.90
25933;DHT22;13731;51.166;4.474;2023-03-20T08:11:23;8.60;88.20
25933;DHT22;13731;51.166;4.474;2023-03-20T08:13:49;8.60;1.00
25933;DHT22;13731;51.166;4.474;2023-03-20T08:16:15;8.40;1.00
25933;DHT22;13731;51.166;4.474;2023-03-20T08:18:40;8.30;99.90
25933;DHT22;13731;51.166;4.474;2023-03-20T08:21:07;8.10;99.90
25933;DHT22;13731;51.166;4.474;2023-03-20T08:23:32;8.10;99.90
25933;DHT22;13731;51.166;4.474;2023-03-20T08:25:58;8.00;1.00
25933;DHT22;13731;51.166;4.474;2023-03-20T08:28:24;7.80;1.00
25933;DHT22;13731;51.166;4.474;2023-03-20T08:30:51;7.80;1.00
25933;DHT22;13731;51.166;4.474;2023-03-20T08:33:17;7.60;99.90
25933;DHT22;13731;51.166;4.474;2023-03-20T08:35:53;7.70;74.40
25933;DHT22;13731;51.166;4.474;2023-03-20T08:38:19;7.70;99.90
25933;DHT22;13731;51.166;4.474;2023-03-20T08:40:45;7.80;87.80
25933;DHT22;13731;51.166;4.474;2023-03-20T08:43:10;7.90;1.00
25933;DHT22;13731;51.166;4.474;2023-03-20T08:45:37;7.90;1.00
25933;DHT22;13731;51.166;4.474;2023-03-20T08:48:03;7.90;1.00
25933;DHT22;13731;51.166;4.474;2023-03-20T08:50:29;7.90;99.90
25933;DHT22;13731;51.166;4.474;2023-03-20T08:52:56;7.90;1.00
25933;DHT22;13731;51.166;4.474;2023-03-20T08:55:21;7.80;99.90
25933;DHT22;13731;51.166;4.474;2023-03-20T08:57:47;7.80;99.90
25933;DHT22;13731;51.166;4.474;2023-03-20T09:00:15;7.80;1.00
25933;DHT22;13731;51.166;4.474;2023-03-20T09:02:42;7.70;99.90
25933;DHT22;13731;51.166;4.474;2023-03-20T09:05:09;7.80;99.90
25933;DHT22;13731;51.166;4.474;2023-03-20T09:07:35;7.80;44.90
25933;DHT22;13731;51.166;4.474;2023-03-20T09:10:03;7.90;1.00
25933;DHT22;13731;51.166;4.474;2023-03-20T09:12:29;8.10;99.90
25933;DHT22;13731;51.166;4.474;2023-03-20T09:14:57;8.20;99.90
25933;DHT22;13731;51.166;4.474;2023-03-20T09:17:23;8.20;1.00
25933;DHT22;13731;51.166;4.474;2023-03-20T09:19:49;8.30;99.90
25933;DHT22;13731;51.166;4.474;2023-03-20T09:22:15;8.40;75.00
25933;DHT22;13731;51.166;4.474;2023-03-20T09:24:43;8.70;1.00
25933;DHT22;13731;51.166;4.474;2023-03-20T09:27:09;8.90;99.90
25933;DHT22;13731;51.166;4.474;2023-03-20T09:29:35;8.90;1.00
25933;DHT22;13731;51.166;4.474;2023-03-20T09:32:01;9.00;99.90
25933;DHT22;13731;51.166;4.474;2023-03-20T09:34:26;9.10;99.90
25933;DHT22;13731;51.166;4.474;2023-03-20T09:36:53;9.30;1.00
25933;DHT22;13731;51.166;4.474;2023-03-20T09:39:19;9.40;1.00
25933;DHT22;13731;51.166;4.474;2023-03-20T09:41:47;9.50;99.90
25933;DHT22;13731;51.166;4.474;2023-03-20T09:47:08;10.00;99.90
25933;DHT22;13731;51.166;4.474;2023-03-20T09:50:01;10.10;99.90
25933;DHT22;13731;51.166;4.474;2023-03-20T09:52:36;10.20;1.00
25933;DHT22;13731;51.166;4.474;2023-03-20T09:55:29;10.00;99.90
25933;DHT22;13731;51.166;4.474;2023-03-20T09:57:58;10.00;1.00
25933;DHT22;13731;51.166;4.474;2023-03-20T10:00:28;10.00;1.00
25933;DHT22;13731;51.166;4.474;2023-03-20T10:05:44;9.70;1.00
25933;DHT22;13731;51.166;4.474;2023-03-20T10:08:15;9.60;99.90
25933;DHT22;13731;51.166;4.474;2023-03-20T10:11:11;9.80;1.00
25933;DHT22;13731;51.166;4.474;2023-03-20T10:21:46;10.10;8.70
25933;DHT22;13731;51.166;4.474;2023-03-20T10:24:39;10.20;99.90
25933;DHT22;13731;51.166;4.474;2023-03-20T10:27:17;10.30;1.00
25933;DHT22;13731;51.166;4.474;2023-03-20T10:30:39;10.10;53.40
25933;DHT22;13731;51.166;4.474;2023-03-20T10:38:05;10.30;2.20
25933;DHT22;13731;51.166;4.474;2023-03-20T10:40:34;10.50;1.00
25933;DHT22;13731;51.166;4.474;2023-03-20T10:43:29;10.50;1.00
25933;DHT22;13731;51.166;4.474;2023-03-20T10:46:07;10.60;1.00
25933;DHT22;13731;51.166;4.474;2023-03-20T10:51:17;10.60;1.00
25933;DHT22;13731;51.166;4.474;2023-03-20T10:53:51;10.70;99.90
25933;DHT22;13731;51.166;4.474;2023-03-20T10:56:39;10.50;1.00
25933;DHT22;13731;51.166;4.474;2023-03-20T10:59:26;10.20;92.20
25933;DHT22;13731;51.166;4.474;2023-03-20T11:01:53;10.00;1.00
25933;DHT22;13731;51.166;4.474;2023-03-20T11:04:19;10.30;99.90
25933;DHT22;13731;51.166;4.474;2023-03-20T11:09:24;11.20;99.90
25933;DHT22;13731;51.166;4.474;2023-03-20T11:12:00;11.50;1.00
25933;DHT22;13731;51.166;4.474;2023-03-20T11:14:36;11.70;1.00
25933;DHT22;13731;51.166;4.474;2023-03-20T11:17:05;11.50;1.00
25933;DHT22;13731;51.166;4.474;2023-03-20T11:19:36;11.30;1.00
25933;DHT22;13731;51.166;4.474;2023-03-20T11:22:22;11.40;1.00
25933;DHT22;13731;51.166;4.474;2023-03-20T11:24:53;11.60;1.00
25933;DHT22;13731;51.166;4.474;2023-03-20T11:27:25;11.90;99.90
25933;DHT22;13731;51.166;4.474;2023-03-20T11:29:53;11.90;99.90
25933;DHT22;13731;51.166;4.474;2023-03-20T11:32:32;11.80;99.90
25933;DHT22;13731;51.166;4.474;2023-03-20T11:37:45;11.70;1.00
25933;DHT22;13731;51.166;4.474;2023-03-20T11:42:37;11.80;99.90
25933;DHT22;13731;51.166;4.474;2023-03-20T11:45:12;11.90;1.00
25933;DHT22;13731;51.166;4.474;2023-03-20T11:47:41;11.80;99.90
25933;DHT22;13731;51.166;4.474;2023-03-20T11:50:31;11.90;99.90
25933;DHT22;13731;51.166;4.474;2023-03-20T11:53:01;12.00;99.90
25933;DHT22;13731;51.166;4.474;2023-03-20T11:55:32;12.60;99.90
25933;DHT22;13731;51.166;4.474;2023-03-20T11:58:02;12.80;1.00
25933;DHT22;13731;51.166;4.474;2023-03-20T12:00:35;12.90;17.80
25933;DHT22;13731;51.166;4.474;2023-03-20T12:03:01;13.20;1.00
25933;DHT22;13731;51.166;4.474;2023-03-20T12:05:37;13.00;1.00
25933;DHT22;13731;51.166;4.474;2023-03-20T12:08:21;12.80;32.90
25933;DHT22;13731;51.166;4.474;2023-03-20T12:10:54;13.10;61.90
25933;DHT22;13731;51.166;4.474;2023-03-20T12:13:34;13.20;1.00
25933;DHT22;13731;51.166;4.474;2023-03-20T12:16:05;13.30;1.00
25933;DHT22;13731;51.166;4.474;2023-03-20T12:18:45;13.50;1.00
25933;DHT22;13731;51.166;4.474;2023-03-20T12:26:41;13.40;1.00
25933;DHT22;13731;51.166;4.474;2023-03-20T12:29:14;13.70;1.00
25933;DHT22;13731;51.166;4.474;2023-03-20T12:31:56;13.40;1.00
25933;DHT22;13731;51.166;4.474;2023-03-20T12:34:39;13.50;1.00
25933;DHT22;13731;51.166;4.474;2023-03-20T12:37:10;13.90;1.00
25933;DHT22;13731;51.166;4.474;2023-03-20T12:39:42;14.30;1.00
25933;DHT22;13731;51.166;4.474;2023-03-20T12:45:24;13.10;1.00
25933;DHT22;13731;51.166;4.474;2023-03-20T12:56:23;12.20;99.90
25933;DHT22;13731;51.166;4.474;2023-03-20T13:01:29;11.80;1.00
25933;DHT22;13731;51.166;4.474;2023-03-20T13:04:26;11.70;1.00
25933;DHT22;13731;51.166;4.474;2023-03-20T13:07:21;11.60;1.00
25933;DHT22;13731;51.166;4.474;2023-03-20T13:18:02;11.60;57.30
25933;DHT22;13731;51.166;4.474;2023-03-20T13:23:10;12.00;1.00
25933;DHT22;13731;51.166;4.474;2023-03-20T13:31:24;11.90;22.60
25933;DHT22;13731;51.166;4.474;2023-03-20T13:33:59;12.20;1.00
25933;DHT22;13731;51.166;4.474;2023-03-20T13:39:12;12.50;1.00
25933;DHT22;13731;51.166;4.474;2023-03-20T13:41:40;12.40;1.00
25933;DHT22;13731;51.166;4.474;2023-03-20T13:44:09;12.40;1.00
25933;DHT22;13731;51.166;4.474;2023-03-20T13:46:42;12.30;1.00
25933;DHT22;13731;51.166;4.474;2023-03-20T13:52:20;12.40;1.00
25933;DHT22;13731;51.166;4.474;2023-03-20T14:05:22;12.10;99.90
25933;DHT22;13731;51.166;4.474;2023-03-20T14:07:55;11.80;99.90
25933;DHT22;13731;51.166;4.474;2023-03-20T14:13:03;11.70;1.00
25933;DHT22;13731;51.166;4.474;2023-03-20T14:15:34;11.80;1.00
25933;DHT22;13731;51.166;4.474;2023-03-20T14:18:04;11.80;1.00
25933;DHT22;13731;51.166;4.474;2023-03-20T14:20:37;11.80;1.00
25933;DHT22;13731;51.166;4.474;2023-03-20T14:23:04;11.80;1.00
25933;DHT22;13731;51.166;4.474;2023-03-20T14:25:40;11.90;1.00
25933;DHT22;13731;51.166;4.474;2023-03-20T14:28:22;12.20;99.90
25933;DHT22;13731;51.166;4.474;2023-03-20T14:30:49;12.40;99.90
25933;DHT22;13731;51.166;4.474;2023-03-20T14:36:16;12.60;1.00
25933;DHT22;13731;51.166;4.474;2023-03-20T14:38:54;12.10;99.90
25933;DHT22;13731;51.166;4.474;2023-03-20T14:44:31;11.90;1.00
25933;DHT22;13731;51.166;4.474;2023-03-20T14:54:51;11.40;99.90
25933;DHT22;13731;51.166;4.474;2023-03-20T14:57:29;11.40;1.00
25933;DHT22;13731;51.166;4.474;2023-03-20T14:59:56;11.30;1.00
25933;DHT22;13731;51.166;4.474;2023-03-20T15:02:28;11.20;1.00
25933;DHT22;13731;51.166;4.474;2023-03-20T15:04:55;11.00;66.60
25933;DHT22;13731;51.166;4.474;2023-03-20T15:07:27;10.90;1.00
25933;DHT22;13731;51.166;4.474;2023-03-20T15:09:56;10.90;1.00
25933;DHT22;13731;51.166;4.474;2023-03-20T15:12:26;10.80;99.90
25933;DHT22;13731;51.166;4.474;2023-03-20T15:14:56;10.90;1.00
25933;DHT22;13731;51.166;4.474;2023-03-20T15:17:25;10.90;32.40
25933;DHT22;13731;51.166;4.474;2023-03-20T15:20:05;10.90;99.90
25933;DHT22;13731;51.166;4.474;2023-03-20T15:22:32;10.90;99.90
25933;DHT22;13731;51.166;4.474;2023-03-20T15:24:58;10.90;53.30
25933;DHT22;13731;51.166;4.474;2023-03-20T15:27:25;10.80;99.90
25933;DHT22;13731;51.166;4.474;2023-03-20T15:29:55;10.90;1.00
25933;DHT22;13731;51.166;4.474;2023-03-20T15:32:22;10.80;1.00
25933;DHT22;13731;51.166;4.474;2023-03-20T15:34:49;10.80;1.00
25933;DHT22;13731;51.166;4.474;2023-03-20T15:37:19;10.90;99.90
25933;DHT22;13731;51.166;4.474;2023-03-20T15:39:52;11.00;99.90
25933;DHT22;13731;51.166;4.474;2023-03-20T15:42:23;10.90;99.90
25933;DHT22;13731;51.166;4.474;2023-03-20T15:44:51;11.00;99.90
25933;DHT22;13731;51.166;4.474;2023-03-20T15:47:20;11.00;37.10
25933;DHT22;13731;51.166;4.474;2023-03-20T15:49:56;11.20;1.00
25933;DHT22;13731;51.166;4.474;2023-03-20T15:52:40;11.50;99.90
25933;DHT22;13731;51.166;4.474;2023-03-20T15:55:13;11.90;99.90
25933;DHT22;13731;51.166;4.474;2023-03-20T15:57:42;12.00;99.90
25933;DHT22;13731;51.166;4.474;2023-03-20T16:00:16;12.20;99.90
25933;DHT22;13731;51.166;4.474;2023-03-20T16:02:46;12.30;1.00
25933;DHT22;13731;51.166;4.474;2023-03-20T16:05:13;12.30;1.00
25933;DHT22;13731;51.166;4.474;2023-03-20T16:07:39;12.40;99.80
25933;DHT22;13731;51.166;4.474;2023-03-20T16:12:50;12.30;1.00
25933;DHT22;13731;51.166;4.474;2023-03-20T16:15:18;12.20;69.80
25933;DHT22;13731;51.166;4.474;2023-03-20T16:17:44;12.20;33.20
25933;DHT22;13731;51.166;4.474;2023-03-20T16:20:15;12.30;1.00
25933;DHT22;13731;51.166;4.474;2023-03-20T16:22:42;12.30;1.00
25933;DHT22;13731;51.166;4.474;2023-03-20T16:25:14;12.50;1.00
25933;DHT22;13731;51.166;4.474;2023-03-20T16:27:40;12.40;99.90
25933;DHT22;13731;51.166;4.474;2023-03-20T16:30:13;12.20;1.00
25933;DHT22;13731;51.166;4.474;2023-03-20T16:32:42;12.10;99.90
25933;DHT22;13731;51.166;4.474;2023-03-20T16:35:20;12.10;99.90
25933;DHT22;13731;51.166;4.474;2023-03-20T16:38:21;12.30;1.00
25933;DHT22;13731;51.166;4.474;2023-03-20T16:40:48;12.20;1.00
25933;DHT22;13731;51.166;4.474;2023-03-20T16:43:20;12.20;1.00
25933;DHT22;13731;51.166;4.474;2023-03-20T16:45:52;12.40;1.00
25933;DHT22;13731;51.166;4.474;2023-03-20T16:50:54;12.40;1.00
25933;DHT22;13731;51.166;4.474;2023-03-20T16:53:21;12.20;1.00
25933;DHT22;13731;51.166;4.474;2023-03-20T16:55:51;12.10;1.00
25933;DHT22;13731;51.166;4.474;2023-03-20T16:58:27;12.10;99.90
25933;DHT22;13731;51.166;4.474;2023-03-20T17:01:07;12.00;99.90
25933;DHT22;13731;51.166;4.474;2023-03-20T17:03:47;12.00;99.90
25933;DHT22;13731;51.166;4.474;2023-03-20T17:09:07;12.00;99.90
25933;DHT22;13731;51.166;4.474;2023-03-20T17:11:38;12.00;99.90
25933;DHT22;13731;51.166;4.474;2023-03-20T17:14:04;12.00;99.90
25933;DHT22;13731;51.166;4.474;2023-03-20T17:16:31;12.00;99.90
25933;DHT22;13731;51.166;4.474;2023-03-20T17:19:05;12.10;99.90
25933;DHT22;13731;51.166;4.474;2023-03-20T17:21:32;12.30;72.60
25933;DHT22;13731;51.166;4.474;2023-03-20T17:23:58;12.20;1.00
25933;DHT22;13731;51.166;4.474;2023-03-20T17:26:24;12.10;62.00
25933;DHT22;13731;51.166;4.474;2023-03-20T17:28:50;12.00;99.90
25933;DHT22;13731;51.166;4.474;2023-03-20T17:31:17;11.80;1.00
25933;DHT22;13731;51.166;4.474;2023-03-20T17:33:43;11.90;1.00
25933;DHT22;13731;51.166;4.474;2023-03-20T17:36:30;11.90;1.00
25933;DHT22;13731;51.166;4.474;2023-03-20T17:38:58;11.80;1.00
25933;DHT22;13731;51.166;4.474;2023-03-20T17:41:25;11.90;1.00
25933;DHT22;13731;51.166;4.474;2023-03-20T17:43:51;12.00;1.00
25933;DHT22;13731;51.166;4.474;2023-03-20T17:49:01;11.80;1.00
25933;DHT22;13731;51.166;4.474;2023-03-20T17:51:27;11.80;1.00
25933;DHT22;13731;51.166;4.474;2023-03-20T17:53:53;11.90;1.00
25933;DHT22;13731;51.166;4.474;2023-03-20T17:56:23;11.80;1.00
25933;DHT22;13731;51.166;4.474;2023-03-20T17:58:50;11.90;99.90
25933;DHT22;13731;51.166;4.474;2023-03-20T18:01:16;11.90;99.90
25933;DHT22;13731;51.166;4.474;2023-03-20T18:03:42;12.00;99.90
25933;DHT22;13731;51.166;4.474;2023-03-20T18:06:18;12.00;99.90
25933;DHT22;13731;51.166;4.474;2023-03-20T18:08:46;11.90;1.00
25933;DHT22;13731;51.166;4.474;2023-03-20T18:11:12;12.00;99.90
25933;DHT22;13731;51.166;4.474;2023-03-20T18:13:38;12.00;99.90
25933;DHT22;13731;51.166;4.474;2023-03-20T18:16:05;11.90;99.90
25933;DHT22;13731;51.166;4.474;2023-03-20T18:18:31;11.90;99.90
25933;DHT22;13731;51.166;4.474;2023-03-20T18:20:56;11.90;99.90
25933;DHT22;13731;51.166;4.474;2023-03-20T18:23:23;11.90;99.10
25933;DHT22;13731;51.166;4.474;2023-03-20T18:25:49;12.00;1.00
25933;DHT22;13731;51.166;4.474;2023-03-20T18:28:16;12.00;1.00
25933;DHT22;13731;51.166;4.474;2023-03-20T18:30:47;11.90;99.90
25933;DHT22;13731;51.166;4.474;2023-03-20T18:33:15;11.80;99.90
25933;DHT22;13731;51.166;4.474;2023-03-20T18:35:41;11.80;99.90
25933;DHT22;13731;51.166;4.474;2023-03-20T18:38:12;11.80;99.90
25933;DHT22;13731;51.166;4.474;2023-03-20T18:40:40;11.90;99.90